sensor_id;sensor_type;location;lat;lon;timestamp;P1;durP1;ratioP1;P2;durP2;ratioP2
41466;SDS011;27205;53.690;19.948;2022-10-16T00:03:10;19.00;;;17.70;;
41466;SDS011;27205;53.690;19.948;2022-10-16T00:08:14;19.00;;;17.70;;
41466;SDS011;27205;53.690;19.948;2022-10-16T00:13:17;17.10;;;15.90;;
41466;SDS011;27205;53.690;19.948;2022-10-16T00:18:22;17.20;;;16.00;;
41466;SDS011;27205;53.690;19.948;2022-10-16T00:23:26;18.40;;;17.10;;
41466;SDS011;27205;53.690;19.948;2022-10-16T00:28:29;18.20;;;17.00;;
41466;SDS011;27205;53.690;19.948;2022-10-16T00:38:36;21.00;;;19.50;;
41466;SDS011;27205;53.690;19.948;2022-10-16T00:43:47;18.80;;;17.50;;
41466;SDS011;27205;53.690;19.948;2022-10-16T00:54:07;22.10;;;20.50;;
41466;SDS011;27205;53.690;19.948;2022-10-16T01:04:43;22.70;;;21.00;;
41466;SDS011;27205;53.690;19.948;2022-10-16T01:31:38;21.40;;;19.60;;
41466;SDS011;27205;53.690;19.948;2022-10-16T01:37:05;21.80;;;20.20;;
41466;SDS011;27205;53.690;19.948;2022-10-16T01:42:19;19.50;;;18.00;;
41466;SDS011;27205;53.690;19.948;2022-10-16T01:47:27;21.10;;;19.60;;
41466;SDS011;27205;53.690;19.948;2022-10-16T01:52:34;21.10;;;19.60;;
41466;SDS011;27205;53.690;19.948;2022-10-16T01:57:43;21.40;;;19.90;;
41466;SDS011;27205;53.690;19.948;2022-10-16T02:02:51;20.60;;;19.00;;
41466;SDS011;27205;53.690;19.948;2022-10-16T02:07:57;21.00;;;19.30;;
41466;SDS011;27205;53.690;19.948;2022-10-16T02:18:15;20.60;;;19.00;;
41466;SDS011;27205;53.690;19.948;2022-10-16T02:23:21;21.30;;;19.80;;
41466;SDS011;27205;53.690;19.948;2022-10-16T02:28:53;19.20;;;17.90;;
41466;SDS011;27205;53.690;19.948;2022-10-16T02:34:03;20.60;;;19.10;;
41466;SDS011;27205;53.690;19.948;2022-10-16T02:39:08;18.60;;;17.20;;
41466;SDS011;27205;53.690;19.948;2022-10-16T02:44:13;19.60;;;18.10;;
41466;SDS011;27205;53.690;19.948;2022-10-16T02:49:16;19.60;;;18.00;;
41466;SDS011;27205;53.690;19.948;2022-10-16T02:54:20;18.20;;;16.80;;
41466;SDS011;27205;53.690;19.948;2022-10-16T02:59:24;18.00;;;16.80;;
41466;SDS011;27205;53.690;19.948;2022-10-16T03:04:27;19.60;;;18.10;;
41466;SDS011;27205;53.690;19.948;2022-10-16T03:09:30;17.80;;;16.50;;
41466;SDS011;27205;53.690;19.948;2022-10-16T03:14:33;19.00;;;17.50;;
41466;SDS011;27205;53.690;19.948;2022-10-16T03:19:36;20.30;;;18.90;;
41466;SDS011;27205;53.690;19.948;2022-10-16T03:24:40;18.90;;;17.60;;
41466;SDS011;27205;53.690;19.948;2022-10-16T03:29:43;18.10;;;16.90;;
41466;SDS011;27205;53.690;19.948;2022-10-16T03:34:46;18.20;;;16.90;;
41466;SDS011;27205;53.690;19.948;2022-10-16T03:39:50;17.80;;;16.60;;
41466;SDS011;27205;53.690;19.948;2022-10-16T03:44:53;17.60;;;16.40;;
41466;SDS011;27205;53.690;19.948;2022-10-16T03:49:56;12.60;;;11.60;;
41466;SDS011;27205;53.690;19.948;2022-10-16T03:54:59;18.30;;;17.00;;
41466;SDS011;27205;53.690;19.948;2022-10-16T04:00:02;17.90;;;16.50;;
41466;SDS011;27205;53.690;19.948;2022-10-16T04:05:06;17.30;;;16.00;;
41466;SDS011;27205;53.690;19.948;2022-10-16T04:15:13;16.80;;;15.50;;
41466;SDS011;27205;53.690;19.948;2022-10-16T04:20:17;17.50;;;16.20;;
41466;SDS011;27205;53.690;19.948;2022-10-16T04:25:20;16.30;;;14.90;;
41466;SDS011;27205;53.690;19.948;2022-10-16T04:30:24;15.90;;;14.80;;
41466;SDS011;27205;53.690;19.948;2022-10-16T04:35:27;15.70;;;14.60;;
41466;SDS011;27205;53.690;19.948;2022-10-16T04:40:31;15.70;;;14.30;;
41466;SDS011;27205;53.690;19.948;2022-10-16T04:45:39;14.80;;;13.70;;
41466;SDS011;27205;53.690;19.948;2022-10-16T04:50:42;17.10;;;15.80;;
41466;SDS011;27205;53.690;19.948;2022-10-16T04:55:45;16.50;;;15.20;;
41466;SDS011;27205;53.690;19.948;2022-10-16T05:00:48;13.40;;;12.50;;
41466;SDS011;27205;53.690;19.948;2022-10-16T05:05:52;15.40;;;14.30;;
41466;SDS011;27205;53.690;19.948;2022-10-16T05:10:55;13.60;;;12.70;;
41466;SDS011;27205;53.690;19.948;2022-10-16T05:15:58;12.10;;;11.10;;
41466;SDS011;27205;53.690;19.948;2022-10-16T05:21:01;12.90;;;11.90;;
41466;SDS011;27205;53.690;19.948;2022-10-16T05:26:05;14.30;;;13.40;;
41466;SDS011;27205;53.690;19.948;2022-10-16T05:31:09;16.00;;;14.60;;
41466;SDS011;27205;53.690;19.948;2022-10-16T05:36:12;11.80;;;10.90;;
41466;SDS011;27205;53.690;19.948;2022-10-16T05:41:16;10.00;;;9.30;;
41466;SDS011;27205;53.690;19.948;2022-10-16T05:46:24;9.40;;;8.80;;
41466;SDS011;27205;53.690;19.948;2022-10-16T05:51:27;11.60;;;10.70;;
41466;SDS011;27205;53.690;19.948;2022-10-16T05:56:30;13.50;;;12.50;;
41466;SDS011;27205;53.690;19.948;2022-10-16T06:01:33;10.50;;;9.70;;
41466;SDS011;27205;53.690;19.948;2022-10-16T06:06:38;11.50;;;10.60;;
41466;SDS011;27205;53.690;19.948;2022-10-16T06:11:41;11.40;;;10.60;;
41466;SDS011;27205;53.690;19.948;2022-10-16T06:16:44;11.10;;;10.30;;
41466;SDS011;27205;53.690;19.948;2022-10-16T06:21:47;10.00;;;9.30;;
41466;SDS011;27205;53.690;19.948;2022-10-16T06:26:50;8.60;;;8.10;;
41466;SDS011;27205;53.690;19.948;2022-10-16T06:31:54;8.80;;;8.00;;
41466;SDS011;27205;53.690;19.948;2022-10-16T06:36:57;8.30;;;7.60;;
41466;SDS011;27205;53.690;19.948;2022-10-16T06:42:00;7.60;;;7.10;;
41466;SDS011;27205;53.690;19.948;2022-10-16T06:47:05;7.20;;;6.70;;
41466;SDS011;27205;53.690;19.948;2022-10-16T06:52:09;6.00;;;5.60;;
41466;SDS011;27205;53.690;19.948;2022-10-16T06:57:12;6.90;;;6.40;;
41466;SDS011;27205;53.690;19.948;2022-10-16T07:02:16;7.00;;;6.40;;
41466;SDS011;27205;53.690;19.948;2022-10-16T07:07:19;6.60;;;6.00;;
41466;SDS011;27205;53.690;19.948;2022-10-16T07:12:22;5.90;;;5.50;;
41466;SDS011;27205;53.690;19.948;2022-10-16T07:17:26;6.10;;;5.70;;
41466;SDS011;27205;53.690;19.948;2022-10-16T07:22:29;5.90;;;5.50;;
41466;SDS011;27205;53.690;19.948;2022-10-16T07:27:32;5.70;;;5.30;;
41466;SDS011;27205;53.690;19.948;2022-10-16T07:32:36;6.60;;;6.10;;
41466;SDS011;27205;53.690;19.948;2022-10-16T07:37:39;6.80;;;6.20;;
41466;SDS011;27205;53.690;19.948;2022-10-16T07:42:48;5.40;;;4.90;;
41466;SDS011;27205;53.690;19.948;2022-10-16T07:47:51;5.40;;;5.10;;
41466;SDS011;27205;53.690;19.948;2022-10-16T07:52:54;5.50;;;5.20;;
41466;SDS011;27205;53.690;19.948;2022-10-16T07:57:57;5.70;;;5.40;;
41466;SDS011;27205;53.690;19.948;2022-10-16T08:03:00;6.20;;;5.70;;
41466;SDS011;27205;53.690;19.948;2022-10-16T08:08:04;5.70;;;5.30;;
41466;SDS011;27205;53.690;19.948;2022-10-16T08:13:07;6.40;;;5.90;;
41466;SDS011;27205;53.690;19.948;2022-10-16T08:18:11;8.20;;;7.50;;
41466;SDS011;27205;53.690;19.948;2022-10-16T08:23:16;5.80;;;5.40;;
41466;SDS011;27205;53.690;19.948;2022-10-16T08:28:19;5.70;;;5.20;;
41466;SDS011;27205;53.690;19.948;2022-10-16T08:33:22;6.80;;;6.10;;
41466;SDS011;27205;53.690;19.948;2022-10-16T08:38:26;6.60;;;6.00;;
41466;SDS011;27205;53.690;19.948;2022-10-16T08:48:56;9.10;;;8.50;;
41466;SDS011;27205;53.690;19.948;2022-10-16T08:54:06;9.00;;;8.30;;
41466;SDS011;27205;53.690;19.948;2022-10-16T09:10:04;6.40;;;5.80;;
41466;SDS011;27205;53.690;19.948;2022-10-16T09:26:13;5.20;;;4.90;;
41466;SDS011;27205;53.690;19.948;2022-10-16T09:31:19;7.80;;;7.30;;
41466;SDS011;27205;53.690;19.948;2022-10-16T09:36:25;6.00;;;5.60;;
41466;SDS011;27205;53.690;19.948;2022-10-16T09:41:30;5.40;;;5.00;;
41466;SDS011;27205;53.690;19.948;2022-10-16T09:51:38;5.30;;;4.90;;
41466;SDS011;27205;53.690;19.948;2022-10-16T09:56:41;5.00;;;4.70;;
41466;SDS011;27205;53.690;19.948;2022-10-16T10:01:51;5.20;;;4.80;;
41466;SDS011;27205;53.690;19.948;2022-10-16T10:06:56;5.30;;;4.40;;
41466;SDS011;27205;53.690;19.948;2022-10-16T10:12:03;5.00;;;4.60;;
41466;SDS011;27205;53.690;19.948;2022-10-16T10:27:43;5.00;;;4.60;;
41466;SDS011;27205;53.690;19.948;2022-10-16T10:33:08;4.40;;;4.10;;
41466;SDS011;27205;53.690;19.948;2022-10-16T11:05:23;3.50;;;3.30;;
41466;SDS011;27205;53.690;19.948;2022-10-16T11:11:05;3.60;;;3.40;;
41466;SDS011;27205;53.690;19.948;2022-10-16T11:16:14;3.50;;;3.30;;
41466;SDS011;27205;53.690;19.948;2022-10-16T11:21:24;4.10;;;3.80;;
41466;SDS011;27205;53.690;19.948;2022-10-16T11:26:34;4.10;;;3.80;;
41466;SDS011;27205;53.690;19.948;2022-10-16T11:31:48;4.20;;;3.80;;
41466;SDS011;27205;53.690;19.948;2022-10-16T11:36:57;3.50;;;3.30;;
41466;SDS011;27205;53.690;19.948;2022-10-16T11:42:21;3.50;;;3.30;;
41466;SDS011;27205;53.690;19.948;2022-10-16T12:03:41;3.80;;;3.50;;
41466;SDS011;27205;53.690;19.948;2022-10-16T12:09:10;3.20;;;3.00;;
41466;SDS011;27205;53.690;19.948;2022-10-16T12:14:21;3.10;;;2.80;;
41466;SDS011;27205;53.690;19.948;2022-10-16T12:19:31;4.60;;;4.30;;
41466;SDS011;27205;53.690;19.948;2022-10-16T12:24:35;5.10;;;4.80;;
41466;SDS011;27205;53.690;19.948;2022-10-16T12:29:41;5.40;;;5.10;;
41466;SDS011;27205;53.690;19.948;2022-10-16T12:34:46;4.50;;;4.10;;
41466;SDS011;27205;53.690;19.948;2022-10-16T12:39:51;4.50;;;4.20;;
41466;SDS011;27205;53.690;19.948;2022-10-16T12:44:57;5.00;;;4.70;;
41466;SDS011;27205;53.690;19.948;2022-10-16T12:50:00;4.50;;;4.20;;
41466;SDS011;27205;53.690;19.948;2022-10-16T12:55:18;4.10;;;3.80;;
41466;SDS011;27205;53.690;19.948;2022-10-16T13:11:13;4.60;;;4.30;;
41466;SDS011;27205;53.690;19.948;2022-10-16T13:16:34;5.50;;;4.50;;
41466;SDS011;27205;53.690;19.948;2022-10-16T13:32:14;5.10;;;4.50;;
41466;SDS011;27205;53.690;19.948;2022-10-16T13:37:19;4.20;;;3.90;;
41466;SDS011;27205;53.690;19.948;2022-10-16T13:42:25;5.10;;;4.70;;
41466;SDS011;27205;53.690;19.948;2022-10-16T13:47:30;6.20;;;5.80;;
41466;SDS011;27205;53.690;19.948;2022-10-16T13:52:34;9.10;;;8.50;;
41466;SDS011;27205;53.690;19.948;2022-10-16T13:57:38;8.40;;;7.80;;
41466;SDS011;27205;53.690;19.948;2022-10-16T14:02:43;9.70;;;9.00;;
41466;SDS011;27205;53.690;19.948;2022-10-16T14:07:48;8.90;;;8.30;;
41466;SDS011;27205;53.690;19.948;2022-10-16T14:12:57;7.70;;;7.20;;
41466;SDS011;27205;53.690;19.948;2022-10-16T14:18:03;6.10;;;5.60;;
41466;SDS011;27205;53.690;19.948;2022-10-16T14:28:34;4.20;;;3.90;;
41466;SDS011;27205;53.690;19.948;2022-10-16T14:33:38;3.90;;;3.60;;
41466;SDS011;27205;53.690;19.948;2022-10-16T14:39:03;3.90;;;3.60;;
41466;SDS011;27205;53.690;19.948;2022-10-16T14:44:09;3.90;;;3.70;;
41466;SDS011;27205;53.690;19.948;2022-10-16T14:49:16;3.90;;;3.50;;
41466;SDS011;27205;53.690;19.948;2022-10-16T14:54:24;4.20;;;3.90;;
41466;SDS011;27205;53.690;19.948;2022-10-16T14:59:35;4.60;;;4.40;;
41466;SDS011;27205;53.690;19.948;2022-10-16T15:04:41;5.30;;;5.00;;
41466;SDS011;27205;53.690;19.948;2022-10-16T15:09:44;5.80;;;5.40;;
41466;SDS011;27205;53.690;19.948;2022-10-16T15:14:51;5.90;;;5.50;;
41466;SDS011;27205;53.690;19.948;2022-10-16T15:19:54;5.90;;;5.50;;
41466;SDS011;27205;53.690;19.948;2022-10-16T15:24:57;6.00;;;5.60;;
41466;SDS011;27205;53.690;19.948;2022-10-16T15:30:00;7.00;;;6.50;;
41466;SDS011;27205;53.690;19.948;2022-10-16T15:35:04;7.60;;;7.00;;
41466;SDS011;27205;53.690;19.948;2022-10-16T15:49:47;8.20;;;7.20;;
41466;SDS011;27205;53.690;19.948;2022-10-16T15:54:49;7.40;;;6.80;;
41466;SDS011;27205;53.690;19.948;2022-10-16T15:59:55;7.10;;;6.60;;
41466;SDS011;27205;53.690;19.948;2022-10-16T16:11:07;8.60;;;7.90;;
41466;SDS011;27205;53.690;19.948;2022-10-16T16:16:12;8.30;;;7.70;;
41466;SDS011;27205;53.690;19.948;2022-10-16T16:21:17;9.70;;;8.90;;
41466;SDS011;27205;53.690;19.948;2022-10-16T16:26:23;9.70;;;9.00;;
41466;SDS011;27205;53.690;19.948;2022-10-16T16:31:32;8.90;;;8.30;;
41466;SDS011;27205;53.690;19.948;2022-10-16T16:36:35;9.60;;;8.90;;
41466;SDS011;27205;53.690;19.948;2022-10-16T16:41:37;8.40;;;7.80;;
41466;SDS011;27205;53.690;19.948;2022-10-16T16:46:39;8.40;;;7.80;;
41466;SDS011;27205;53.690;19.948;2022-10-16T16:51:44;10.10;;;9.30;;
41466;SDS011;27205;53.690;19.948;2022-10-16T16:56:45;8.20;;;7.60;;
41466;SDS011;27205;53.690;19.948;2022-10-16T17:01:48;9.20;;;8.50;;
41466;SDS011;27205;53.690;19.948;2022-10-16T17:06:57;9.70;;;8.90;;
41466;SDS011;27205;53.690;19.948;2022-10-16T17:11:59;8.90;;;8.30;;
41466;SDS011;27205;53.690;19.948;2022-10-16T17:17:01;10.40;;;9.40;;
41466;SDS011;27205;53.690;19.948;2022-10-16T17:22:03;9.80;;;8.90;;
41466;SDS011;27205;53.690;19.948;2022-10-16T17:27:05;9.40;;;8.80;;
41466;SDS011;27205;53.690;19.948;2022-10-16T17:32:07;9.90;;;9.20;;
41466;SDS011;27205;53.690;19.948;2022-10-16T17:37:09;11.50;;;10.70;;
41466;SDS011;27205;53.690;19.948;2022-10-16T17:42:18;10.20;;;9.50;;
41466;SDS011;27205;53.690;19.948;2022-10-16T17:47:19;11.10;;;10.30;;
41466;SDS011;27205;53.690;19.948;2022-10-16T17:52:21;11.80;;;11.00;;
41466;SDS011;27205;53.690;19.948;2022-10-16T17:57:23;10.00;;;9.20;;
41466;SDS011;27205;53.690;19.948;2022-10-16T18:02:26;9.00;;;8.40;;
41466;SDS011;27205;53.690;19.948;2022-10-16T18:07:28;10.10;;;9.30;;
41466;SDS011;27205;53.690;19.948;2022-10-16T18:12:30;10.30;;;9.60;;
41466;SDS011;27205;53.690;19.948;2022-10-16T18:17:33;10.30;;;9.50;;
41466;SDS011;27205;53.690;19.948;2022-10-16T18:22:40;9.00;;;8.40;;
41466;SDS011;27205;53.690;19.948;2022-10-16T18:27:42;8.90;;;8.20;;
41466;SDS011;27205;53.690;19.948;2022-10-16T18:32:44;9.90;;;9.10;;
41466;SDS011;27205;53.690;19.948;2022-10-16T18:37:46;10.10;;;9.40;;
41466;SDS011;27205;53.690;19.948;2022-10-16T18:47:54;10.10;;;9.40;;
41466;SDS011;27205;53.690;19.948;2022-10-16T18:52:56;9.50;;;8.80;;
41466;SDS011;27205;53.690;19.948;2022-10-16T18:57:59;9.20;;;8.70;;
41466;SDS011;27205;53.690;19.948;2022-10-16T19:03:01;10.20;;;9.50;;
41466;SDS011;27205;53.690;19.948;2022-10-16T19:08:04;11.40;;;10.40;;
41466;SDS011;27205;53.690;19.948;2022-10-16T19:13:07;10.90;;;10.10;;
41466;SDS011;27205;53.690;19.948;2022-10-16T19:18:12;10.70;;;9.90;;
41466;SDS011;27205;53.690;19.948;2022-10-16T19:23:14;11.00;;;10.20;;
41466;SDS011;27205;53.690;19.948;2022-10-16T19:28:16;11.10;;;10.30;;
41466;SDS011;27205;53.690;19.948;2022-10-16T19:33:18;11.20;;;10.30;;
41466;SDS011;27205;53.690;19.948;2022-10-16T19:38:20;11.50;;;10.70;;
41466;SDS011;27205;53.690;19.948;2022-10-16T19:43:22;11.50;;;10.60;;
41466;SDS011;27205;53.690;19.948;2022-10-16T19:48:24;11.40;;;10.50;;
41466;SDS011;27205;53.690;19.948;2022-10-16T19:53:31;10.20;;;9.50;;
41466;SDS011;27205;53.690;19.948;2022-10-16T19:58:33;10.20;;;9.50;;
41466;SDS011;27205;53.690;19.948;2022-10-16T20:03:36;10.10;;;9.40;;
41466;SDS011;27205;53.690;19.948;2022-10-16T20:08:40;10.20;;;9.50;;
41466;SDS011;27205;53.690;19.948;2022-10-16T20:13:43;9.90;;;9.30;;
41466;SDS011;27205;53.690;19.948;2022-10-16T20:18:46;11.20;;;10.20;;
41466;SDS011;27205;53.690;19.948;2022-10-16T20:23:50;9.20;;;8.60;;
41466;SDS011;27205;53.690;19.948;2022-10-16T20:28:52;9.70;;;9.10;;
41466;SDS011;27205;53.690;19.948;2022-10-16T20:33:56;10.70;;;9.90;;
41466;SDS011;27205;53.690;19.948;2022-10-16T20:38:59;10.10;;;9.40;;
41466;SDS011;27205;53.690;19.948;2022-10-16T20:44:02;8.30;;;7.80;;
41466;SDS011;27205;53.690;19.948;2022-10-16T20:49:05;10.50;;;9.80;;
41466;SDS011;27205;53.690;19.948;2022-10-16T20:54:17;10.00;;;9.10;;
41466;SDS011;27205;53.690;19.948;2022-10-16T20:59:19;8.50;;;7.90;;
41466;SDS011;27205;53.690;19.948;2022-10-16T21:04:20;9.30;;;8.70;;
41466;SDS011;27205;53.690;19.948;2022-10-16T21:09:22;11.20;;;10.40;;
41466;SDS011;27205;53.690;19.948;2022-10-16T21:14:25;9.90;;;9.20;;
41466;SDS011;27205;53.690;19.948;2022-10-16T21:19:28;15.10;;;14.10;;
41466;SDS011;27205;53.690;19.948;2022-10-16T21:24:30;14.90;;;13.70;;
41466;SDS011;27205;53.690;19.948;2022-10-16T21:29:32;11.10;;;10.30;;
41466;SDS011;27205;53.690;19.948;2022-10-16T21:34:35;14.90;;;14.00;;
41466;SDS011;27205;53.690;19.948;2022-10-16T21:39:37;11.20;;;10.40;;
41466;SDS011;27205;53.690;19.948;2022-10-16T21:44:39;9.20;;;8.50;;
41466;SDS011;27205;53.690;19.948;2022-10-16T21:49:41;13.60;;;12.50;;
41466;SDS011;27205;53.690;19.948;2022-10-16T21:54:43;10.60;;;9.90;;
41466;SDS011;27205;53.690;19.948;2022-10-16T21:59:44;13.90;;;12.90;;
41466;SDS011;27205;53.690;19.948;2022-10-16T22:04:46;12.90;;;12.00;;
41466;SDS011;27205;53.690;19.948;2022-10-16T22:09:48;11.90;;;10.90;;
41466;SDS011;27205;53.690;19.948;2022-10-16T22:14:50;11.70;;;11.00;;
41466;SDS011;27205;53.690;19.948;2022-10-16T22:19:52;12.90;;;12.00;;
41466;SDS011;27205;53.690;19.948;2022-10-16T22:24:54;10.80;;;9.90;;
41466;SDS011;27205;53.690;19.948;2022-10-16T22:29:55;10.80;;;10.10;;
41466;SDS011;27205;53.690;19.948;2022-10-16T22:34:57;13.00;;;12.10;;
41466;SDS011;27205;53.690;19.948;2022-10-16T22:39:59;12.10;;;11.20;;
41466;SDS011;27205;53.690;19.948;2022-10-16T22:45:02;11.70;;;10.90;;
41466;SDS011;27205;53.690;19.948;2022-10-16T22:50:04;13.40;;;12.50;;
41466;SDS011;27205;53.690;19.948;2022-10-16T22:55:07;12.00;;;11.10;;
41466;SDS011;27205;53.690;19.948;2022-10-16T23:00:11;11.60;;;10.80;;
41466;SDS011;27205;53.690;19.948;2022-10-16T23:05:14;12.10;;;11.30;;
41466;SDS011;27205;53.690;19.948;2022-10-16T23:10:16;11.20;;;10.40;;
41466;SDS011;27205;53.690;19.948;2022-10-16T23:15:19;8.90;;;8.30;;
41466;SDS011;27205;53.690;19.948;2022-10-16T23:20:22;10.10;;;9.40;;
41466;SDS011;27205;53.690;19.948;2022-10-16T23:25:24;10.50;;;9.80;;
41466;SDS011;27205;53.690;19.948;2022-10-16T23:30:26;9.60;;;8.80;;
41466;SDS011;27205;53.690;19.948;2022-10-16T23:35:28;10.50;;;9.70;;
41466;SDS011;27205;53.690;19.948;2022-10-16T23:40:30;8.40;;;7.80;;
41466;SDS011;27205;53.690;19.948;2022-10-16T23:45:32;9.20;;;8.60;;
41466;SDS011;27205;53.690;19.948;2022-10-16T23:50:34;9.40;;;8.60;;
41466;SDS011;27205;53.690;19.948;2022-10-16T23:55:36;9.30;;;8.70;;
